Time;durP1;ratioP1;P1;durP2;ratioP2;P2;SDS_P1;SDS_P2;PMS_P1;PMS_P2;Temp;Humidity;BMP_temperature;BMP_pressure;BME280_temperature;BME280_humidity;BME280_pressure;Samples;Min_cycle;Max_cycle;Signal;HPM_P1;HPM_P2
2021/01/21 00:00:30;;;;;;;12.52;3.00;;;11.10;95.30;;;;;;4968792;28;20340;-73
2021/01/21 00:02:57;;;;;;;4.40;2.47;;;11.10;95.40;;;;;;4968308;28;20252;-72
2021/01/21 00:05:24;;;;;;;6.15;3.00;;;11.10;95.30;;;;;;4952470;28;20277;-73
2021/01/21 00:07:50;;;;;;;3.78;2.60;;;11.10;95.40;;;;;;4969497;28;20210;-73
2021/01/21 00:10:16;;;;;;;7.28;3.20;;;11.10;95.40;;;;;;4966767;28;21209;-73
2021/01/21 00:12:43;;;;;;;6.22;3.10;;;11.10;95.40;;;;;;4967276;28;20649;-73
2021/01/21 00:15:10;;;;;;;5.57;2.60;;;11.10;95.50;;;;;;4967402;28;20202;-73
2021/01/21 00:17:37;;;;;;;7.13;3.10;;;11.10;95.50;;;;;;4972620;28;20228;-73
2021/01/21 00:20:04;;;;;;;5.97;2.78;;;11.10;95.60;;;;;;4971616;28;20201;-73
2021/01/21 00:22:31;;;;;;;4.45;2.58;;;11.00;95.60;;;;;;4958128;28;20301;-73
2021/01/21 00:24:57;;;;;;;4.75;2.67;;;11.00;95.70;;;;;;4968369;28;20206;-72
2021/01/21 00:27:23;;;;;;;5.05;2.60;;;11.00;95.70;;;;;;4975479;28;20209;-72
2021/01/21 00:29:50;;;;;;;4.47;2.60;;;11.00;95.80;;;;;;4967120;28;20671;-73
2021/01/21 00:32:16;;;;;;;4.45;2.45;;;11.00;95.80;;;;;;4968131;28;20205;-73
2021/01/21 00:34:43;;;;;;;3.55;2.40;;;11.00;95.80;;;;;;4968321;28;20575;-72
2021/01/21 00:37:10;;;;;;;4.22;2.50;;;11.00;95.90;;;;;;4968513;28;20232;-75
2021/01/21 00:39:36;;;;;;;3.92;2.20;;;11.00;95.90;;;;;;4967596;28;20272;-74
2021/01/21 00:42:02;;;;;;;5.10;2.50;;;11.00;95.90;;;;;;4969236;28;20210;-74
2021/01/21 00:44:29;;;;;;;3.40;2.10;;;11.00;95.90;;;;;;4966941;28;20206;-74
2021/01/21 00:46:55;;;;;;;4.57;2.33;;;11.10;95.90;;;;;;4969165;28;20256;-74
2021/01/21 00:49:21;;;;;;;5.35;2.40;;;11.10;95.90;;;;;;4950133;28;20683;-74
2021/01/21 00:51:48;;;;;;;6.35;2.30;;;11.10;96.00;;;;;;4967172;28;20222;-75
2021/01/21 00:54:15;;;;;;;3.20;2.40;;;11.10;96.20;;;;;;4968062;28;20597;-72
2021/01/21 00:56:41;;;;;;;5.57;2.65;;;11.10;96.30;;;;;;4955346;28;20217;-75
2021/01/21 00:59:08;;;;;;;6.28;2.55;;;11.10;96.40;;;;;;4968198;28;20198;-75
2021/01/21 01:01:35;;;;;;;5.15;2.60;;;11.00;96.70;;;;;;4950966;28;20214;-74
2021/01/21 01:04:07;;;;;;;7.07;2.60;;;11.00;97.00;;;;;;4950448;28;20229;-73
2021/01/21 01:06:37;;;;;;;9.32;2.67;;;11.00;97.50;;;;;;4954537;28;20281;-73
2021/01/21 01:09:05;;;;;;;7.38;2.75;;;10.90;97.90;;;;;;4954033;28;20229;-74
2021/01/21 01:11:31;;;;;;;7.20;2.70;;;10.80;98.20;;;;;;4971778;28;20206;-74
2021/01/21 01:13:58;;;;;;;6.38;2.70;;;10.70;98.80;;;;;;4960149;28;20220;-74
2021/01/21 01:16:24;;;;;;;3.85;2.58;;;10.60;99.30;;;;;;4969441;28;20209;-75
2021/01/21 01:19:04;;;;;;;4.35;2.33;;;10.50;99.70;;;;;;4959907;28;20197;-74
2021/01/21 01:21:35;;;;;;;5.60;2.70;;;10.30;99.90;;;;;;4953745;28;20217;-74
2021/01/21 01:24:03;;;;;;;6.40;2.75;;;10.30;99.90;;;;;;4954649;28;20549;-74
2021/01/21 01:26:31;;;;;;;5.68;2.60;;;10.20;99.90;;;;;;4955045;28;20281;-74
2021/01/21 01:29:06;;;;;;;8.23;3.00;;;10.10;99.90;;;;;;4953953;28;20627;-74
2021/01/21 01:31:33;;;;;;;7.45;3.05;;;10.00;99.90;;;;;;4954749;28;20209;-74
2021/01/21 01:34:00;;;;;;;8.80;3.10;;;10.00;99.90;;;;;;4954142;28;20663;-74
2021/01/21 01:36:28;;;;;;;7.30;2.80;;;10.00;99.90;;;;;;4972192;28;20559;-74
2021/01/21 01:38:58;;;;;;;3.78;2.65;;;9.90;99.90;;;;;;4953855;28;20205;-74
2021/01/21 01:41:47;;;;;;;7.88;2.85;;;9.90;99.90;;;;;;4953842;28;20267;-74
2021/01/21 01:44:14;;;;;;;5.70;2.65;;;9.90;99.90;;;;;;4970434;28;20272;-75
2021/01/21 01:46:40;;;;;;;6.57;2.72;;;9.90;99.90;;;;;;4954738;28;20212;-74
2021/01/21 01:49:13;;;;;;;5.72;2.72;;;9.90;99.90;;;;;;4963846;28;20209;-74
2021/01/21 01:51:43;;;;;;;5.15;2.70;;;10.00;99.90;;;;;;4967235;28;20202;-74
2021/01/21 01:54:11;;;;;;;6.53;2.58;;;10.00;99.90;;;;;;4953537;28;20313;-74
2021/01/21 01:56:41;;;;;;;5.68;2.78;;;10.00;99.90;;;;;;4954069;28;20222;-73
2021/01/21 01:59:15;;;;;;;5.47;2.47;;;10.00;99.90;;;;;;4953066;28;20214;-74
2021/01/21 02:01:50;;;;;;;5.15;2.50;;;10.10;99.90;;;;;;4970641;28;20300;-73
2021/01/21 02:04:21;;;;;;;11.18;2.72;;;10.10;99.90;;;;;;4953295;28;20245;-74
2021/01/21 02:07:05;;;;;;;4.32;2.28;;;10.20;99.90;;;;;;4953506;28;20206;-74
2021/01/21 02:09:41;;;;;;;8.57;2.33;;;10.30;99.90;;;;;;4953775;28;20215;-74
2021/01/21 02:12:20;;;;;;;9.57;2.58;;;10.40;99.90;;;;;;4953101;28;20721;-73
2021/01/21 02:14:56;;;;;;;4.43;2.15;;;10.50;99.90;;;;;;4970320;28;20221;-74
2021/01/21 02:17:32;;;;;;;4.88;2.17;;;10.60;99.90;;;;;;4952038;28;20766;-74
2021/01/21 02:20:31;;;;;;;4.38;2.20;;;10.60;99.90;;;;;;4953533;28;20214;-73
2021/01/21 02:23:31;;;;;;;2.22;1.83;;;10.70;99.90;;;;;;4969820;28;20210;-74
2021/01/21 02:26:04;;;;;;;2.90;1.75;;;10.80;99.90;;;;;;4953427;28;20206;-73
2021/01/21 02:29:06;;;;;;;5.47;2.30;;;10.80;99.90;;;;;;4969701;28;20670;-73
2021/01/21 02:32:06;;;;;;;7.18;2.20;;;10.90;99.90;;;;;;4970025;28;20605;-73
2021/01/21 02:34:46;;;;;;;5.15;2.13;;;10.90;99.90;;;;;;4952618;28;20295;-73
2021/01/21 02:37:23;;;;;;;5.57;2.30;;;10.80;99.90;;;;;;4952775;28;20244;-74
2021/01/21 02:39:58;;;;;;;5.50;2.30;;;10.70;99.90;;;;;;4952620;28;20644;-73
2021/01/21 02:42:26;;;;;;;5.20;2.25;;;10.70;99.90;;;;;;4952846;28;20300;-73
2021/01/21 02:44:53;;;;;;;7.75;2.53;;;10.60;99.90;;;;;;4952572;28;20205;-73
2021/01/21 02:47:22;;;;;;;6.32;2.35;;;10.60;99.90;;;;;;4969523;28;20198;-74
2021/01/21 02:49:52;;;;;;;7.88;2.28;;;10.60;99.90;;;;;;4950757;28;20629;-73
2021/01/21 02:52:24;;;;;;;5.03;2.00;;;10.60;99.90;;;;;;4952276;28;20615;-74
2021/01/21 02:55:05;;;;;;;4.85;2.35;;;10.50;99.90;;;;;;4947018;28;20306;-73
2021/01/21 02:57:47;;;;;;;11.07;2.70;;;10.50;99.90;;;;;;4951494;28;20261;-74
2021/01/21 03:00:17;;;;;;;4.72;2.80;;;10.30;99.90;;;;;;4950340;28;20665;-73
2021/01/21 03:02:45;;;;;;;6.03;2.92;;;10.30;99.90;;;;;;4953703;28;20221;-75
2021/01/21 03:05:15;;;;;;;8.40;2.90;;;10.10;99.90;;;;;;4947692;28;20230;-73
2021/01/21 03:07:43;;;;;;;7.43;2.90;;;10.10;99.90;;;;;;4951764;28;20202;-73
2021/01/21 03:10:11;;;;;;;12.40;3.67;;;10.00;99.90;;;;;;4951615;28;20206;-73
2021/01/21 03:12:43;;;;;;;11.20;3.58;;;9.90;99.90;;;;;;4965441;28;20240;-74
2021/01/21 03:15:15;;;;;;;9.45;3.10;;;9.90;99.90;;;;;;4952210;28;20208;-73
2021/01/21 03:17:54;;;;;;;13.00;3.45;;;9.80;99.90;;;;;;4951338;28;20222;-73
2021/01/21 03:20:27;;;;;;;9.68;3.47;;;9.80;99.90;;;;;;4953187;28;20331;-74
2021/01/21 03:22:54;;;;;;;8.43;3.45;;;9.80;99.90;;;;;;4952288;28;20706;-75
2021/01/21 03:25:20;;;;;;;6.78;3.42;;;9.80;99.90;;;;;;4952135;28;20206;-74
2021/01/21 03:27:57;;;;;;;17.77;2.55;;;9.80;99.90;;;;;;4950867;28;20292;-73
2021/01/21 03:30:27;;;;;;;15.32;2.20;;;9.70;99.90;;;;;;4967629;28;20201;-73
2021/01/21 03:32:54;;;;;;;11.80;1.85;;;9.30;99.90;;;;;;4969528;28;20202;-72
2021/01/21 03:35:24;;;;;;;23.83;2.70;;;9.00;99.90;;;;;;4952225;28;20206;-73
2021/01/21 03:37:51;;;;;;;21.60;2.72;;;8.60;99.90;;;;;;4950517;28;20237;-73
2021/01/21 03:40:20;;;;;;;25.83;3.17;;;8.40;99.90;;;;;;4953026;28;20209;-73
2021/01/21 03:42:50;;;;;;;27.77;2.92;;;8.30;99.90;;;;;;4952714;28;20206;-73
2021/01/21 03:45:24;;;;;;;21.80;2.47;;;8.20;99.90;;;;;;4956043;28;20209;-73
2021/01/21 03:47:52;;;;;;;26.77;2.85;;;8.10;99.90;;;;;;4977665;28;20254;-73
2021/01/21 03:50:20;;;;;;;22.92;2.38;;;8.10;99.90;;;;;;4950961;28;20209;-73
2021/01/21 03:52:49;;;;;;;22.83;3.20;;;8.00;99.90;;;;;;4951594;28;20208;-73
2021/01/21 03:55:22;;;;;;;34.50;2.85;;;8.00;99.90;;;;;;4950294;28;20686;-74
2021/01/21 03:57:59;;;;;;;42.88;3.95;;;8.00;99.90;;;;;;4950890;28;20229;-73
2021/01/21 04:00:46;;;;;;;30.80;3.28;;;8.00;99.90;;;;;;4967847;28;20223;-73
2021/01/21 04:03:13;;;;;;;38.40;3.22;;;8.00;99.90;;;;;;4950477;28;20238;-73
2021/01/21 04:05:51;;;;;;;34.90;4.07;;;8.00;99.90;;;;;;4956708;28;20205;-73
2021/01/21 04:08:21;;;;;;;36.67;4.13;;;8.00;99.90;;;;;;4950463;28;20296;-73
2021/01/21 04:10:58;;;;;;;29.40;4.15;;;7.90;99.90;;;;;;4950655;28;20212;-73
2021/01/21 04:13:41;;;;;;;35.40;4.10;;;7.90;99.90;;;;;;4949858;28;20504;-74
2021/01/21 04:16:13;;;;;;;33.72;4.10;;;7.90;99.90;;;;;;4965426;28;20925;-73
2021/01/21 04:18:41;;;;;;;33.53;4.07;;;7.80;99.90;;;;;;4945015;28;20727;-73
2021/01/21 04:21:09;;;;;;;27.95;4.30;;;7.80;99.90;;;;;;4950316;28;20205;-72
2021/01/21 04:23:36;;;;;;;33.03;4.50;;;7.80;99.90;;;;;;4949504;28;20209;-73
2021/01/21 04:26:05;;;;;;;29.83;3.88;;;7.80;99.90;;;;;;4951175;28;20205;-72
2021/01/21 04:28:37;;;;;;;35.30;4.50;;;7.80;99.90;;;;;;4949245;28;20197;-73
2021/01/21 04:31:04;;;;;;;55.45;5.07;;;7.80;99.90;;;;;;4968347;28;20222;-73
2021/01/21 04:33:31;;;;;;;31.13;4.25;;;7.80;99.90;;;;;;4949127;28;22368;-74
2021/01/21 04:35:58;;;;;;;32.42;4.03;;;7.80;99.90;;;;;;4954316;28;20198;-73
2021/01/21 04:38:25;;;;;;;31.33;4.38;;;7.80;99.90;;;;;;4951833;28;20283;-74
2021/01/21 04:41:00;;;;;;;35.78;4.13;;;7.80;99.90;;;;;;4952964;28;20297;-74
2021/01/21 04:43:46;;;;;;;22.73;3.22;;;7.80;99.90;;;;;;4969335;28;21064;-73
2021/01/21 04:46:21;;;;;;;20.33;2.58;;;7.70;99.90;;;;;;4953198;28;20208;-73
2021/01/21 04:48:51;;;;;;;22.48;2.53;;;7.70;99.90;;;;;;4951471;28;20226;-74
2021/01/21 04:51:19;;;;;;;26.52;3.08;;;7.60;99.90;;;;;;4955063;28;20233;-74
2021/01/21 04:53:59;;;;;;;16.55;2.55;;;7.60;99.90;;;;;;4951200;28;20209;-74
2021/01/21 04:56:48;;;;;;;19.60;2.80;;;7.50;99.90;;;;;;4954045;28;20221;-74
2021/01/21 04:59:36;;;;;;;17.90;2.78;;;7.40;99.90;;;;;;4970654;28;20710;-73
2021/01/21 05:02:04;;;;;;;20.83;2.50;;;7.40;99.90;;;;;;4954342;28;20320;-74
2021/01/21 05:04:37;;;;;;;18.63;2.72;;;7.30;99.90;;;;;;4952954;28;20240;-74
2021/01/21 05:07:25;;;;;;;14.98;2.72;;;7.30;99.90;;;;;;4962106;28;20641;-74
2021/01/21 05:09:53;;;;;;;13.02;2.03;;;7.20;99.90;;;;;;4960633;28;20297;-74
2021/01/21 05:12:21;;;;;;;19.80;2.00;;;7.20;99.90;;;;;;4967987;28;20210;-74
2021/01/21 05:15:08;;;;;;;15.02;1.70;;;7.00;99.90;;;;;;4971742;28;20253;-74
2021/01/21 05:17:59;;;;;;;14.07;1.73;;;6.90;99.90;;;;;;4963037;28;20723;-73
2021/01/21 05:20:53;;;;;;;17.38;1.98;;;6.70;99.90;;;;;;4947309;28;20267;-74
2021/01/21 05:23:39;;;;;;;17.58;2.33;;;6.50;99.90;;;;;;4970475;28;21714;-74
2021/01/21 05:26:15;;;;;;;31.65;2.97;;;6.40;99.90;;;;;;4954414;28;20288;-74
2021/01/21 05:29:00;;;;;;;24.52;2.92;;;6.30;99.90;;;;;;4953655;28;20205;-73
2021/01/21 05:31:35;;;;;;;20.98;3.15;;;6.30;99.90;;;;;;4954284;28;20220;-74
2021/01/21 05:34:07;;;;;;;30.40;3.08;;;6.30;99.90;;;;;;4954298;28;20205;-74
2021/01/21 05:36:56;;;;;;;29.88;2.55;;;6.30;99.90;;;;;;4967995;28;20217;-73
2021/01/21 05:39:36;;;;;;;17.45;1.98;;;6.20;99.90;;;;;;4956836;28;20347;-73
2021/01/21 05:42:24;;;;;;;17.67;2.35;;;6.30;99.90;;;;;;4971993;28;20213;-75
2021/01/21 05:45:00;;;;;;;22.52;2.67;;;6.30;99.90;;;;;;4954357;28;20705;-73
2021/01/21 05:47:56;;;;;;;18.75;2.53;;;6.30;99.90;;;;;;4958638;28;20347;-73
2021/01/21 05:50:24;;;;;;;28.00;2.65;;;6.40;99.90;;;;;;4963597;28;20324;-74
2021/01/21 05:52:55;;;;;;;26.17;3.60;;;6.40;99.90;;;;;;4953166;28;20214;-75
2021/01/21 05:55:22;;;;;;;21.42;2.80;;;6.50;99.90;;;;;;4954155;28;20248;-75
2021/01/21 05:57:54;;;;;;;27.83;3.35;;;6.50;99.90;;;;;;4958727;28;20232;-74
2021/01/21 06:00:24;;;;;;;23.33;3.17;;;6.60;99.90;;;;;;4949061;28;20329;-75
2021/01/21 06:03:00;;;;;;;20.13;3.17;;;6.60;99.90;;;;;;4967661;28;20229;-75
2021/01/21 06:05:50;;;;;;;21.15;2.67;;;6.70;99.90;;;;;;4965466;28;20303;-76
2021/01/21 06:08:21;;;;;;;17.52;2.55;;;6.70;99.90;;;;;;4964217;28;20206;-74
2021/01/21 06:10:50;;;;;;;17.00;2.65;;;6.70;99.90;;;;;;4961508;28;20668;-74
2021/01/21 06:13:17;;;;;;;23.17;2.83;;;6.70;99.90;;;;;;4970897;28;20206;-74
2021/01/21 06:15:44;;;;;;;21.35;2.38;;;6.70;99.90;;;;;;4953876;28;20245;-74
2021/01/21 06:18:12;;;;;;;15.45;2.30;;;6.70;99.90;;;;;;4968157;28;20614;-76
2021/01/21 06:20:47;;;;;;;21.58;2.47;;;6.70;99.90;;;;;;4958247;28;20219;-74
2021/01/21 06:23:35;;;;;;;21.55;2.70;;;6.70;99.90;;;;;;4978954;28;20268;-74
2021/01/21 06:26:21;;;;;;;17.92;2.90;;;6.70;99.90;;;;;;4958218;28;20591;-74
2021/01/21 06:28:49;;;;;;;19.92;2.45;;;6.70;99.90;;;;;;4973886;28;20209;-75
2021/01/21 06:31:18;;;;;;;17.17;2.40;;;6.70;99.90;;;;;;4970460;28;20656;-74
2021/01/21 06:33:46;;;;;;;22.52;2.58;;;6.70;99.90;;;;;;4972090;28;20213;-75
2021/01/21 06:36:19;;;;;;;16.02;2.15;;;6.60;99.90;;;;;;4979173;28;20207;-75
2021/01/21 06:38:48;;;;;;;9.40;2.00;;;6.70;99.90;;;;;;4971396;28;20222;-75
2021/01/21 06:41:17;;;;;;;18.65;2.45;;;6.60;99.90;;;;;;4973257;28;20291;-74
2021/01/21 06:43:44;;;;;;;15.55;2.75;;;6.70;99.90;;;;;;4971853;28;20201;-74
2021/01/21 06:46:13;;;;;;;15.82;2.75;;;6.70;99.90;;;;;;4975468;28;20212;-74
2021/01/21 06:48:40;;;;;;;16.58;2.72;;;6.70;99.90;;;;;;4970505;28;20210;-73
2021/01/21 06:51:09;;;;;;;16.92;2.40;;;6.70;99.90;;;;;;4971692;28;20206;-74
2021/01/21 06:53:41;;;;;;;17.08;2.75;;;6.80;99.90;;;;;;4972071;28;20217;-74
2021/01/21 06:56:08;;;;;;;13.50;2.30;;;6.80;99.90;;;;;;4970687;28;20693;-75
2021/01/21 06:58:50;;;;;;;19.77;2.58;;;6.80;99.90;;;;;;4970654;28;20234;-75
2021/01/21 07:01:46;;;;;;;24.30;3.08;;;6.80;99.90;;;;;;4972366;28;20641;-74
2021/01/21 07:04:27;;;;;;;16.50;2.80;;;6.80;99.90;;;;;;4966120;28;20246;-74
2021/01/21 07:07:12;;;;;;;14.98;2.80;;;6.80;99.90;;;;;;4972809;28;20206;-73
2021/01/21 07:09:41;;;;;;;21.52;2.60;;;6.80;99.90;;;;;;4968128;28;20217;-74
2021/01/21 07:12:16;;;;;;;17.00;2.60;;;6.80;99.90;;;;;;4969334;28;20217;-74
2021/01/21 07:14:43;;;;;;;20.38;3.53;;;6.80;99.90;;;;;;4966161;28;20296;-75
2021/01/21 07:17:11;;;;;;;22.60;2.90;;;6.80;99.90;;;;;;4969032;28;20218;-75
2021/01/21 07:19:38;;;;;;;14.68;2.70;;;6.80;99.90;;;;;;4971088;28;20264;-75
2021/01/21 07:22:20;;;;;;;17.25;2.83;;;6.80;99.90;;;;;;4970653;28;20660;-75
2021/01/21 07:24:50;;;;;;;18.20;2.95;;;6.80;99.90;;;;;;4969022;28;20212;-74
2021/01/21 07:27:19;;;;;;;19.40;3.03;;;6.80;99.90;;;;;;4949342;28;20206;-74
2021/01/21 07:29:46;;;;;;;18.73;2.72;;;6.80;99.90;;;;;;4967117;28;20214;-74
2021/01/21 07:32:12;;;;;;;20.50;2.53;;;6.80;99.90;;;;;;4968321;28;20297;-74
2021/01/21 07:34:46;;;;;;;12.55;2.50;;;6.80;99.90;;;;;;4968670;28;20204;-74
2021/01/21 07:37:26;;;;;;;16.80;2.17;;;6.70;99.90;;;;;;4966562;28;20256;-74
2021/01/21 07:39:54;;;;;;;19.23;2.45;;;6.70;99.90;;;;;;4967668;28;20197;-73
2021/01/21 07:42:22;;;;;;;15.02;2.40;;;6.70;99.90;;;;;;4968252;28;20869;-74
2021/01/21 07:44:57;;;;;;;14.00;2.10;;;6.70;99.90;;;;;;4967763;28;20246;-73
2021/01/21 07:47:28;;;;;;;20.52;2.70;;;6.70;99.90;;;;;;4965494;28;20212;-74
2021/01/21 07:50:30;;;;;;;14.73;1.95;;;6.70;99.90;;;;;;4949303;28;20213;-74
2021/01/21 07:52:59;;;;;;;14.35;2.53;;;6.70;99.90;;;;;;4971481;28;20737;-74
2021/01/21 07:55:26;;;;;;;20.67;2.83;;;6.70;99.90;;;;;;4967068;28;20206;-73
2021/01/21 07:57:53;;;;;;;22.58;2.70;;;6.70;99.90;;;;;;4967715;28;20222;-76
2021/01/21 08:00:20;;;;;;;16.77;2.65;;;6.70;99.90;;;;;;4966447;28;20229;-74
2021/01/21 08:02:48;;;;;;;22.42;2.70;;;6.70;99.90;;;;;;4948242;28;20341;-74
2021/01/21 08:05:16;;;;;;;17.27;2.45;;;6.80;99.90;;;;;;4970933;28;20228;-74
2021/01/21 08:07:44;;;;;;;21.30;2.97;;;6.80;99.90;;;;;;4967014;28;20201;-73
2021/01/21 08:10:13;;;;;;;24.45;2.97;;;6.80;99.90;;;;;;4967479;28;20205;-73
2021/01/21 08:12:39;;;;;;;23.45;2.70;;;6.80;99.90;;;;;;4967827;28;20212;-73
2021/01/21 08:15:06;;;;;;;20.67;2.65;;;6.80;99.90;;;;;;4966172;28;20267;-74
2021/01/21 08:17:33;;;;;;;17.15;2.65;;;6.80;99.90;;;;;;4974472;28;20218;-74
2021/01/21 08:20:00;;;;;;;13.90;2.70;;;6.80;99.90;;;;;;4949473;28;20209;-73
2021/01/21 08:22:26;;;;;;;13.75;2.30;;;6.80;99.90;;;;;;4951101;28;20225;-74
2021/01/21 08:25:01;;;;;;;16.50;2.47;;;6.80;99.90;;;;;;4964544;28;20214;-73
2021/01/21 08:27:44;;;;;;;14.35;2.45;;;6.80;99.90;;;;;;4948741;28;20205;-74
2021/01/21 08:30:18;;;;;;;13.30;2.65;;;6.80;99.90;;;;;;4964884;28;20209;-74
2021/01/21 08:32:48;;;;;;;21.42;2.60;;;6.80;99.90;;;;;;4967299;28;20218;-74
2021/01/21 08:35:17;;;;;;;13.10;2.17;;;6.80;99.90;;;;;;4963249;28;20677;-74
2021/01/21 08:37:44;;;;;;;21.85;2.35;;;6.80;99.90;;;;;;4951265;28;20229;-74
2021/01/21 08:40:12;;;;;;;22.42;2.88;;;6.80;99.90;;;;;;4967549;28;20210;-74
2021/01/21 08:42:39;;;;;;;20.55;2.80;;;6.90;99.90;;;;;;4948072;28;20301;-73
2021/01/21 08:45:08;;;;;;;21.83;2.63;;;6.90;99.90;;;;;;4950621;28;20210;-74
2021/01/21 08:47:42;;;;;;;16.30;2.20;;;6.90;99.90;;;;;;4968619;28;20217;-72
2021/01/21 08:50:09;;;;;;;19.63;2.58;;;6.90;99.90;;;;;;4964793;28;20662;-73
2021/01/21 08:52:37;;;;;;;19.75;2.42;;;7.00;99.90;;;;;;4966347;28;20209;-73
2021/01/21 08:55:04;;;;;;;21.70;2.72;;;7.00;99.90;;;;;;4951481;28;20241;-73
2021/01/21 08:57:30;;;;;;;23.45;2.63;;;7.00;99.90;;;;;;4966866;28;20682;-74
2021/01/21 09:00:12;;;;;;;22.67;2.70;;;7.10;99.90;;;;;;4967813;28;20268;-73
2021/01/21 09:02:42;;;;;;;20.70;2.50;;;7.10;99.90;;;;;;4967174;28;20252;-72
2021/01/21 09:05:10;;;;;;;19.70;2.80;;;7.20;99.90;;;;;;4966600;28;20233;-73
2021/01/21 09:07:36;;;;;;;20.10;2.55;;;7.20;99.90;;;;;;4967832;28;20206;-73
2021/01/21 09:10:09;;;;;;;22.42;2.53;;;7.20;99.90;;;;;;4966573;28;20689;-73
2021/01/21 09:12:36;;;;;;;22.73;3.28;;;7.30;99.90;;;;;;4967970;28;20256;-73
2021/01/21 09:15:05;;;;;;;27.05;3.97;;;7.30;99.90;;;;;;4967593;28;22015;-73
2021/01/21 09:17:33;;;;;;;27.13;3.70;;;7.30;99.90;;;;;;4965877;28;20224;-73
2021/01/21 09:20:00;;;;;;;22.73;2.83;;;7.30;99.90;;;;;;4951432;28;20198;-74
2021/01/21 09:22:38;;;;;;;36.67;3.67;;;7.30;99.90;;;;;;4958832;28;21663;-74
2021/01/21 09:25:06;;;;;;;27.40;2.80;;;7.30;99.90;;;;;;4967780;28;20217;-74
2021/01/21 09:27:34;;;;;;;18.63;2.28;;;7.40;99.90;;;;;;4954690;28;20202;-74
2021/01/21 09:30:02;;;;;;;15.07;2.70;;;7.50;99.90;;;;;;4971781;28;20674;-74
2021/01/21 09:32:31;;;;;;;22.55;2.92;;;7.50;99.90;;;;;;4955331;28;20225;-74
2021/01/21 09:35:01;;;;;;;14.23;2.28;;;7.60;99.90;;;;;;4971106;28;20210;-74
2021/01/21 09:37:29;;;;;;;21.33;3.08;;;7.60;99.90;;;;;;4972445;28;20224;-74
2021/01/21 09:39:55;;;;;;;15.13;2.40;;;7.60;99.90;;;;;;4971344;28;20691;-74
2021/01/21 09:42:22;;;;;;;14.93;2.50;;;7.60;99.90;;;;;;4972353;28;20226;-74
2021/01/21 09:44:48;;;;;;;17.45;2.65;;;7.60;99.90;;;;;;4971002;28;20253;-74
2021/01/21 09:47:15;;;;;;;13.95;2.22;;;7.60;99.90;;;;;;4978282;28;20206;-74
2021/01/21 09:49:42;;;;;;;13.25;2.83;;;7.60;99.90;;;;;;4972221;28;20206;-74
2021/01/21 09:52:10;;;;;;;13.00;2.72;;;7.60;99.90;;;;;;4970432;28;20214;-74
2021/01/21 09:54:37;;;;;;;9.65;2.30;;;7.50;99.90;;;;;;4970995;28;20213;-74
2021/01/21 09:57:04;;;;;;;13.68;2.30;;;7.50;99.90;;;;;;4970858;28;20221;-74
2021/01/21 09:59:30;;;;;;;10.98;2.00;;;7.50;99.90;;;;;;4971333;28;20210;-74
2021/01/21 10:01:57;;;;;;;12.48;1.90;;;7.50;99.90;;;;;;4970888;28;20209;-74
2021/01/21 10:04:23;;;;;;;18.73;2.22;;;7.50;99.90;;;;;;4970835;28;20237;-74
2021/01/21 10:06:49;;;;;;;13.07;1.98;;;7.60;99.90;;;;;;4967404;28;20217;-74
2021/01/21 10:09:17;;;;;;;10.27;2.00;;;7.60;99.90;;;;;;4969476;28;20204;-74
2021/01/21 10:11:43;;;;;;;10.68;2.22;;;7.60;99.90;;;;;;4972015;28;20634;-74
2021/01/21 10:14:10;;;;;;;12.63;1.80;;;7.60;99.90;;;;;;4969645;28;20202;-74
2021/01/21 10:16:36;;;;;;;14.77;2.13;;;7.70;99.90;;;;;;4962873;28;20210;-74
2021/01/21 10:19:03;;;;;;;10.80;1.83;;;7.80;99.90;;;;;;4973815;28;20251;-74
2021/01/21 10:21:29;;;;;;;13.55;2.25;;;7.80;99.90;;;;;;4970683;28;20589;-74
2021/01/21 10:23:55;;;;;;;17.52;2.80;;;7.90;99.90;;;;;;4970366;28;20744;-74
2021/01/21 10:26:23;;;;;;;12.32;2.53;;;7.90;99.90;;;;;;4968402;28;20213;-74
2021/01/21 10:28:49;;;;;;;12.43;2.03;;;7.90;99.90;;;;;;4969293;28;20678;-74
2021/01/21 10:31:16;;;;;;;23.48;2.90;;;7.90;99.90;;;;;;4970427;28;20211;-74
2021/01/21 10:33:43;;;;;;;21.60;2.83;;;7.90;99.90;;;;;;4969170;28;20202;-74
2021/01/21 10:36:10;;;;;;;19.63;2.65;;;7.80;99.90;;;;;;4971227;28;20209;-73
2021/01/21 10:38:37;;;;;;;14.93;2.70;;;7.70;99.90;;;;;;4956772;28;20226;-73
2021/01/21 10:41:04;;;;;;;18.25;3.13;;;7.60;99.90;;;;;;4970664;28;20576;-73
2021/01/21 10:43:31;;;;;;;13.43;2.50;;;7.60;99.90;;;;;;4968774;28;20260;-74
2021/01/21 10:45:58;;;;;;;17.88;2.22;;;7.50;99.90;;;;;;4970192;28;20205;-74
2021/01/21 10:48:25;;;;;;;17.25;2.50;;;7.50;99.90;;;;;;4960059;28;20209;-73
2021/01/21 10:50:51;;;;;;;13.93;2.75;;;7.60;99.90;;;;;;4969787;28;20632;-75
2021/01/21 10:53:17;;;;;;;13.07;2.42;;;7.60;99.90;;;;;;4970019;28;20202;-74
2021/01/21 10:55:44;;;;;;;15.55;3.08;;;7.60;99.90;;;;;;4962247;28;20264;-75
2021/01/21 10:58:10;;;;;;;14.68;2.05;;;7.60;99.90;;;;;;4970866;28;20233;-74
2021/01/21 11:00:37;;;;;;;12.73;1.80;;;7.60;99.90;;;;;;4969197;28;20206;-74
2021/01/21 11:03:04;;;;;;;14.32;2.10;;;7.60;99.90;;;;;;4952180;28;20221;-74
2021/01/21 11:05:30;;;;;;;9.18;1.80;;;7.60;99.90;;;;;;4970167;28;20569;-75
2021/01/21 11:07:57;;;;;;;13.85;1.88;;;7.60;99.90;;;;;;4970098;28;20206;-74
2021/01/21 11:10:23;;;;;;;6.38;1.60;;;7.60;99.90;;;;;;4970570;28;20206;-74
2021/01/21 11:12:49;;;;;;;11.45;1.80;;;7.60;99.90;;;;;;4969339;28;21009;-74
2021/01/21 11:15:17;;;;;;;12.23;1.80;;;7.60;99.90;;;;;;4970408;28;20214;-75
2021/01/21 11:17:45;;;;;;;9.13;1.85;;;7.70;99.90;;;;;;4952198;28;20309;-74
2021/01/21 11:20:12;;;;;;;9.50;2.20;;;7.70;99.90;;;;;;4958874;28;20210;-75
2021/01/21 11:22:38;;;;;;;13.27;2.28;;;7.70;99.90;;;;;;4970118;28;20714;-74
2021/01/21 11:25:07;;;;;;;15.23;2.00;;;7.80;99.90;;;;;;4951752;28;20213;-74
2021/01/21 11:27:34;;;;;;;13.68;2.20;;;7.90;99.90;;;;;;4970664;28;20204;-75
2021/01/21 11:30:00;;;;;;;11.98;2.20;;;7.90;99.90;;;;;;4968871;28;20217;-74
2021/01/21 11:32:27;;;;;;;13.68;1.85;;;7.90;99.90;;;;;;4969912;28;20214;-74
2021/01/21 11:34:54;;;;;;;7.15;1.63;;;7.90;99.90;;;;;;4969318;28;20206;-74
2021/01/21 11:37:20;;;;;;;7.93;1.73;;;7.80;99.90;;;;;;4975537;28;20201;-74
2021/01/21 11:39:47;;;;;;;7.93;1.55;;;7.80;99.90;;;;;;4969118;28;20202;-75
2021/01/21 11:42:13;;;;;;;12.27;1.92;;;7.70;99.90;;;;;;4969347;28;20228;-73
2021/01/21 11:44:40;;;;;;;11.45;1.88;;;7.70;99.90;;;;;;4969023;28;20202;-73
2021/01/21 11:47:06;;;;;;;11.02;1.77;;;7.70;99.90;;;;;;4969179;28;20205;-74
2021/01/21 11:49:32;;;;;;;9.13;1.67;;;7.70;99.90;;;;;;4950937;28;20202;-74
2021/01/21 11:52:00;;;;;;;9.50;2.22;;;7.80;99.90;;;;;;4969378;28;20210;-75
2021/01/21 11:54:26;;;;;;;12.95;1.88;;;7.80;99.90;;;;;;4967308;28;20197;-75
2021/01/21 11:56:52;;;;;;;13.68;1.90;;;7.90;99.90;;;;;;4969714;28;20201;-74
2021/01/21 11:59:19;;;;;;;10.20;1.50;;;7.90;99.90;;;;;;4969777;28;20253;-74
2021/01/21 12:01:45;;;;;;;15.75;2.40;;;8.00;99.90;;;;;;4968728;28;20209;-74
2021/01/21 12:04:12;;;;;;;12.50;1.75;;;8.00;99.90;;;;;;4968083;28;20234;-74
2021/01/21 12:06:38;;;;;;;9.77;1.92;;;8.00;99.90;;;;;;4969437;28;20260;-76
2021/01/21 12:09:06;;;;;;;5.60;1.52;;;8.10;99.90;;;;;;4967691;28;21004;-74
2021/01/21 12:11:34;;;;;;;7.60;1.90;;;8.10;99.90;;;;;;4969173;28;20721;-75
2021/01/21 12:14:01;;;;;;;11.65;2.10;;;8.10;99.90;;;;;;4968647;28;20212;-75
2021/01/21 12:16:27;;;;;;;9.45;1.80;;;8.20;99.90;;;;;;4968763;28;20225;-74
2021/01/21 12:18:54;;;;;;;13.65;1.67;;;8.20;99.90;;;;;;4972329;28;20229;-74
2021/01/21 12:21:21;;;;;;;10.15;1.63;;;8.20;99.90;;;;;;4968363;28;20212;-72
2021/01/21 12:23:47;;;;;;;8.52;1.30;;;8.30;99.90;;;;;;4968115;28;20208;-74
2021/01/21 12:26:15;;;;;;;8.07;1.52;;;8.30;99.90;;;;;;4968598;28;20213;-74
2021/01/21 12:28:41;;;;;;;10.73;1.65;;;8.40;99.90;;;;;;4965988;28;20199;-74
2021/01/21 12:31:08;;;;;;;8.45;1.70;;;8.40;99.90;;;;;;4956560;28;20201;-75
2021/01/21 12:33:35;;;;;;;13.18;2.80;;;8.50;99.90;;;;;;4970244;28;20210;-75
2021/01/21 12:36:03;;;;;;;12.48;1.60;;;8.50;99.90;;;;;;4950210;28;20221;-74
2021/01/21 12:38:29;;;;;;;5.95;1.70;;;8.60;99.90;;;;;;4950959;28;20218;-72
2021/01/21 12:40:56;;;;;;;7.88;1.90;;;8.70;99.90;;;;;;4967946;28;20212;-74
2021/01/21 12:43:23;;;;;;;13.63;1.88;;;8.70;99.80;;;;;;4965959;28;20252;-74
2021/01/21 12:45:50;;;;;;;20.00;2.00;;;8.80;99.90;;;;;;4967940;28;20198;-74
2021/01/21 12:48:16;;;;;;;9.48;1.40;;;8.80;99.80;;;;;;4969147;28;20190;-73
2021/01/21 12:50:43;;;;;;;12.88;1.67;;;8.80;99.60;;;;;;4950257;28;20213;-74
2021/01/21 12:53:09;;;;;;;13.07;1.70;;;8.80;99.70;;;;;;4968200;28;20269;-74
2021/01/21 12:55:36;;;;;;;13.43;1.60;;;8.80;99.30;;;;;;4967080;28;20214;-74
2021/01/21 12:58:02;;;;;;;9.00;1.48;;;8.90;99.00;;;;;;4968777;28;20299;-74
2021/01/21 13:00:32;;;;;;;15.13;1.77;;;8.90;98.90;;;;;;4967970;28;20717;-75
2021/01/21 13:02:59;;;;;;;7.70;1.52;;;8.90;99.00;;;;;;4972818;28;20197;-74
2021/01/21 13:05:25;;;;;;;13.90;1.67;;;8.80;98.80;;;;;;4974760;28;20240;-74